Terminal Aerodrome Forecast
Issued by NWS Cleveland, OH

Home | Current Version | Previous Version | Text Only | Print | Product List | Glossary On
Versions: 1 2 3 4 5 6 7 8 9 10 11 12 13 14 15 16
000
FTUS41 KCLE 141125
TAFTOL
TAF
KTOL 141125Z 1412/1512 VRB03KT P6SM FEW040
     FM141700 13006KT P6SM BKN100
     FM150200 12008KT 5SM -SN OVC030
     FM150600 11008KT 3SM -SN OVC015=

USA.gov is the U.S. government's official web portal to all federal, state and local government web resources and services.